• images/banner/banner1.jpg
  • images/banner/banner2.jpg

Team Member Login

Aviation Weather

[source: ADDS]
METAR
EGVN 200150Z 23001KT 9999 7000S BKN250 05/04 Q1029 WHT TEMPO 3500 BR YLO1 =
TAF EGVN 200150Z 2003/2103 VRB04KT 7000 HZ FEW030 TEMPO 2003/2009 3500 BR PROB40 2004/2008 0500 FG VV/// BECMG 2009/2011 9999 NSW BECMG 2021/2023 5000 HZ BECMG 2023/2101 3000 BR PROB40 2101/2103 0500 FG VV///
TAF
TAF EGVN 200150Z 2003/2103 VRB04KT 7000 HZ FEW030 TEMPO 2003/2009 3500 BR PROB40 2004/2008 0500 FG VV/// BECMG 2009/2011 9999 NSW BECMG 2021/2023 5000 HZ BECMG 2023/2101 3000 BR PROB40 2101/2103 0500 FG VV/// =